sensor_id;sensor_type;location;lat;lon;timestamp;pressure;altitude;pressure_sealevel;temperature;humidity
8320;BME280;4197;42.130;24.746;2023-06-26T00:01:28;98997.03;;;22.97;100.00
8320;BME280;4197;42.130;24.746;2023-06-26T00:03:58;98994.59;;;22.99;100.00
8320;BME280;4197;42.130;24.746;2023-06-26T00:06:27;98998.00;;;23.03;100.00
8320;BME280;4197;42.130;24.746;2023-06-26T00:08:56;98998.47;;;23.01;100.00
8320;BME280;4197;42.130;24.746;2023-06-26T00:11:25;98992.38;;;23.06;100.00
8320;BME280;4197;42.130;24.746;2023-06-26T00:13:55;98988.38;;;23.07;100.00
8320;BME280;4197;42.130;24.746;2023-06-26T00:16:24;98985.16;;;23.09;100.00
8320;BME280;4197;42.130;24.746;2023-06-26T00:18:52;98991.13;;;23.07;100.00
8320;BME280;4197;42.130;24.746;2023-06-26T00:21:20;98988.03;;;23.05;100.00
8320;BME280;4197;42.130;24.746;2023-06-26T00:23:48;98989.72;;;23.03;100.00
8320;BME280;4197;42.130;24.746;2023-06-26T00:26:17;98986.66;;;23.01;100.00
8320;BME280;4197;42.130;24.746;2023-06-26T00:28:46;98996.28;;;22.96;100.00
8320;BME280;4197;42.130;24.746;2023-06-26T00:31:15;98996.69;;;22.94;100.00
8320;BME280;4197;42.130;24.746;2023-06-26T00:33:43;99006.69;;;22.92;100.00
8320;BME280;4197;42.130;24.746;2023-06-26T00:36:12;99005.69;;;22.86;100.00
8320;BME280;4197;42.130;24.746;2023-06-26T00:38:41;99002.28;;;22.82;100.00
8320;BME280;4197;42.130;24.746;2023-06-26T00:41:09;98995.84;;;22.85;100.00
8320;BME280;4197;42.130;24.746;2023-06-26T00:43:40;99003.63;;;22.77;100.00
8320;BME280;4197;42.130;24.746;2023-06-26T00:46:09;99006.50;;;22.74;100.00
8320;BME280;4197;42.130;24.746;2023-06-26T00:48:41;99009.41;;;22.70;100.00
8320;BME280;4197;42.130;24.746;2023-06-26T00:51:12;99003.09;;;22.69;100.00
8320;BME280;4197;42.130;24.746;2023-06-26T00:53:41;99007.53;;;22.67;100.00
8320;BME280;4197;42.130;24.746;2023-06-26T00:56:10;99008.75;;;22.66;100.00
8320;BME280;4197;42.130;24.746;2023-06-26T00:58:39;99001.13;;;22.57;100.00
8320;BME280;4197;42.130;24.746;2023-06-26T01:01:07;98999.59;;;22.56;100.00
8320;BME280;4197;42.130;24.746;2023-06-26T01:03:46;98999.06;;;22.48;100.00
8320;BME280;4197;42.130;24.746;2023-06-26T01:06:21;99001.50;;;22.46;100.00
8320;BME280;4197;42.130;24.746;2023-06-26T01:08:50;98999.63;;;22.43;100.00
8320;BME280;4197;42.130;24.746;2023-06-26T01:11:19;98982.41;;;22.39;100.00
8320;BME280;4197;42.130;24.746;2023-06-26T01:13:47;98988.78;;;22.36;100.00
8320;BME280;4197;42.130;24.746;2023-06-26T01:16:17;98983.41;;;22.33;100.00
8320;BME280;4197;42.130;24.746;2023-06-26T01:18:48;98989.91;;;22.39;100.00
8320;BME280;4197;42.130;24.746;2023-06-26T01:21:17;98987.38;;;22.32;100.00
8320;BME280;4197;42.130;24.746;2023-06-26T01:23:58;98988.59;;;22.31;100.00
8320;BME280;4197;42.130;24.746;2023-06-26T01:26:29;98983.19;;;22.27;100.00
8320;BME280;4197;42.130;24.746;2023-06-26T01:29:03;98979.78;;;22.23;100.00
8320;BME280;4197;42.130;24.746;2023-06-26T01:31:32;98977.47;;;22.21;100.00
8320;BME280;4197;42.130;24.746;2023-06-26T01:34:02;98977.47;;;22.21;100.00
8320;BME280;4197;42.130;24.746;2023-06-26T01:36:30;98973.94;;;22.21;100.00
8320;BME280;4197;42.130;24.746;2023-06-26T01:38:59;98974.03;;;22.17;100.00
8320;BME280;4197;42.130;24.746;2023-06-26T01:41:46;98968.50;;;22.17;100.00
8320;BME280;4197;42.130;24.746;2023-06-26T01:44:24;98970.16;;;22.15;100.00
8320;BME280;4197;42.130;24.746;2023-06-26T01:47:00;98968.94;;;22.16;100.00
8320;BME280;4197;42.130;24.746;2023-06-26T01:49:43;98967.81;;;22.13;100.00
8320;BME280;4197;42.130;24.746;2023-06-26T01:52:20;98969.69;;;22.16;100.00
8320;BME280;4197;42.130;24.746;2023-06-26T01:54:57;98963.88;;;22.14;100.00
8320;BME280;4197;42.130;24.746;2023-06-26T01:57:27;98966.72;;;22.11;100.00
8320;BME280;4197;42.130;24.746;2023-06-26T01:59:58;98963.19;;;22.10;100.00
8320;BME280;4197;42.130;24.746;2023-06-26T02:02:28;98967.19;;;22.09;100.00
8320;BME280;4197;42.130;24.746;2023-06-26T02:04:56;98972.72;;;22.09;100.00
8320;BME280;4197;42.130;24.746;2023-06-26T02:07:25;98978.66;;;22.08;100.00
8320;BME280;4197;42.130;24.746;2023-06-26T02:09:53;98979.13;;;22.06;100.00
8320;BME280;4197;42.130;24.746;2023-06-26T02:12:21;98982.19;;;22.08;100.00
8320;BME280;4197;42.130;24.746;2023-06-26T02:14:51;98973.91;;;22.08;100.00
8320;BME280;4197;42.130;24.746;2023-06-26T02:17:20;98977.22;;;22.03;100.00
8320;BME280;4197;42.130;24.746;2023-06-26T02:19:48;98972.91;;;22.02;100.00
8320;BME280;4197;42.130;24.746;2023-06-26T02:22:16;98976.22;;;21.97;100.00
8320;BME280;4197;42.130;24.746;2023-06-26T02:24:44;98975.03;;;21.98;100.00
8320;BME280;4197;42.130;24.746;2023-06-26T02:27:12;98975.25;;;22.03;100.00
8320;BME280;4197;42.130;24.746;2023-06-26T02:29:41;98974.56;;;21.99;100.00
8320;BME280;4197;42.130;24.746;2023-06-26T02:32:10;98978.31;;;22.05;100.00
8320;BME280;4197;42.130;24.746;2023-06-26T02:34:39;98971.81;;;22.12;100.00
8320;BME280;4197;42.130;24.746;2023-06-26T02:37:07;98965.06;;;22.13;100.00
8320;BME280;4197;42.130;24.746;2023-06-26T02:39:35;98966.50;;;22.05;100.00
8320;BME280;4197;42.130;24.746;2023-06-26T02:42:04;98965.97;;;22.10;100.00
8320;BME280;4197;42.130;24.746;2023-06-26T02:44:32;98965.88;;;22.01;100.00
8320;BME280;4197;42.130;24.746;2023-06-26T02:47:00;98974.03;;;22.04;100.00
8320;BME280;4197;42.130;24.746;2023-06-26T02:49:29;98967.63;;;22.08;100.00
8320;BME280;4197;42.130;24.746;2023-06-26T02:51:57;98967.41;;;22.02;100.00
8320;BME280;4197;42.130;24.746;2023-06-26T02:54:25;98968.41;;;21.95;100.00
8320;BME280;4197;42.130;24.746;2023-06-26T02:56:54;98967.06;;;22.00;100.00
8320;BME280;4197;42.130;24.746;2023-06-26T02:59:22;98972.59;;;22.00;100.00
8320;BME280;4197;42.130;24.746;2023-06-26T03:01:50;98969.94;;;21.96;100.00
8320;BME280;4197;42.130;24.746;2023-06-26T03:04:18;98975.81;;;21.98;100.00
8320;BME280;4197;42.130;24.746;2023-06-26T03:06:49;98975.47;;;21.96;100.00
8320;BME280;4197;42.130;24.746;2023-06-26T03:09:18;98982.31;;;21.92;100.00
8320;BME280;4197;42.130;24.746;2023-06-26T03:11:46;98982.53;;;21.85;100.00
8320;BME280;4197;42.130;24.746;2023-06-26T03:14:14;98980.56;;;21.98;100.00
8320;BME280;4197;42.130;24.746;2023-06-26T03:16:42;98983.75;;;22.09;100.00
8320;BME280;4197;42.130;24.746;2023-06-26T03:19:11;98983.63;;;22.13;100.00
8320;BME280;4197;42.130;24.746;2023-06-26T03:21:39;98988.63;;;22.18;100.00
8320;BME280;4197;42.130;24.746;2023-06-26T03:24:09;98981.88;;;22.19;100.00
8320;BME280;4197;42.130;24.746;2023-06-26T03:26:39;98987.94;;;22.26;100.00
8320;BME280;4197;42.130;24.746;2023-06-26T03:29:08;98992.16;;;22.31;100.00
8320;BME280;4197;42.130;24.746;2023-06-26T03:31:36;98990.78;;;22.36;100.00
8320;BME280;4197;42.130;24.746;2023-06-26T03:34:04;98994.09;;;22.43;100.00
8320;BME280;4197;42.130;24.746;2023-06-26T03:36:32;98992.88;;;22.44;100.00
8320;BME280;4197;42.130;24.746;2023-06-26T03:39:02;98995.75;;;22.41;100.00
8320;BME280;4197;42.130;24.746;2023-06-26T03:41:32;98998.28;;;22.48;100.00
8320;BME280;4197;42.130;24.746;2023-06-26T03:44:00;98997.75;;;22.53;100.00
8320;BME280;4197;42.130;24.746;2023-06-26T03:46:28;99000.50;;;22.53;100.00
8320;BME280;4197;42.130;24.746;2023-06-26T03:48:56;99003.34;;;22.62;100.00
8320;BME280;4197;42.130;24.746;2023-06-26T03:51:25;98986.00;;;22.62;100.00
8320;BME280;4197;42.130;24.746;2023-06-26T03:53:53;98987.16;;;22.74;100.00
8320;BME280;4197;42.130;24.746;2023-06-26T03:56:21;98981.63;;;22.74;100.00
8320;BME280;4197;42.130;24.746;2023-06-26T03:58:50;98992.97;;;22.88;100.00
8320;BME280;4197;42.130;24.746;2023-06-26T04:01:18;98993.50;;;22.96;100.00
8320;BME280;4197;42.130;24.746;2023-06-26T04:03:48;98993.50;;;22.96;100.00
8320;BME280;4197;42.130;24.746;2023-06-26T04:06:16;98986.19;;;23.02;100.00
8320;BME280;4197;42.130;24.746;2023-06-26T04:08:44;98978.22;;;23.04;100.00
8320;BME280;4197;42.130;24.746;2023-06-26T04:11:12;98984.91;;;23.16;100.00
8320;BME280;4197;42.130;24.746;2023-06-26T04:13:40;98982.97;;;23.26;100.00
8320;BME280;4197;42.130;24.746;2023-06-26T04:16:10;98985.59;;;23.29;100.00
8320;BME280;4197;42.130;24.746;2023-06-26T04:18:39;98988.31;;;23.42;100.00
8320;BME280;4197;42.130;24.746;2023-06-26T04:21:08;98984.03;;;23.50;100.00
8320;BME280;4197;42.130;24.746;2023-06-26T04:23:38;98978.53;;;23.59;100.00
8320;BME280;4197;42.130;24.746;2023-06-26T04:26:07;98984.66;;;23.76;100.00
8320;BME280;4197;42.130;24.746;2023-06-26T04:28:36;98979.38;;;24.00;100.00
8320;BME280;4197;42.130;24.746;2023-06-26T04:31:04;98990.91;;;24.08;100.00
8320;BME280;4197;42.130;24.746;2023-06-26T04:33:34;98987.69;;;24.19;100.00
8320;BME280;4197;42.130;24.746;2023-06-26T04:36:03;98981.88;;;24.26;100.00
8320;BME280;4197;42.130;24.746;2023-06-26T04:38:31;98991.44;;;24.34;100.00
8320;BME280;4197;42.130;24.746;2023-06-26T04:41:00;98987.59;;;24.32;100.00
8320;BME280;4197;42.130;24.746;2023-06-26T04:43:28;98989.28;;;24.38;100.00
8320;BME280;4197;42.130;24.746;2023-06-26T04:45:56;98989.28;;;24.29;100.00
8320;BME280;4197;42.130;24.746;2023-06-26T04:48:24;98994.69;;;24.42;100.00
8320;BME280;4197;42.130;24.746;2023-06-26T04:50:55;98992.84;;;24.39;100.00
8320;BME280;4197;42.130;24.746;2023-06-26T04:53:25;99000.09;;;24.36;100.00
8320;BME280;4197;42.130;24.746;2023-06-26T04:55:53;98995.63;;;24.39;100.00
8320;BME280;4197;42.130;24.746;2023-06-26T04:58:21;99004.13;;;24.54;100.00
8320;BME280;4197;42.130;24.746;2023-06-26T05:00:50;99005.69;;;24.73;100.00
8320;BME280;4197;42.130;24.746;2023-06-26T05:03:18;99008.63;;;24.79;100.00
8320;BME280;4197;42.130;24.746;2023-06-26T05:05:47;99020.63;;;24.94;100.00
8320;BME280;4197;42.130;24.746;2023-06-26T05:08:20;99024.81;;;25.17;100.00
8320;BME280;4197;42.130;24.746;2023-06-26T05:10:48;99028.38;;;25.18;100.00
8320;BME280;4197;42.130;24.746;2023-06-26T05:13:17;99029.25;;;25.33;100.00
8320;BME280;4197;42.130;24.746;2023-06-26T05:15:46;99034.78;;;25.51;100.00
8320;BME280;4197;42.130;24.746;2023-06-26T05:18:14;99027.50;;;25.72;100.00
8320;BME280;4197;42.130;24.746;2023-06-26T05:20:43;99042.09;;;25.82;100.00
8320;BME280;4197;42.130;24.746;2023-06-26T05:23:12;99041.84;;;25.71;100.00
8320;BME280;4197;42.130;24.746;2023-06-26T05:25:42;99052.84;;;25.56;100.00
8320;BME280;4197;42.130;24.746;2023-06-26T05:28:11;99042.50;;;25.56;100.00
8320;BME280;4197;42.130;24.746;2023-06-26T05:30:42;99035.78;;;25.91;100.00
8320;BME280;4197;42.130;24.746;2023-06-26T05:33:11;99047.78;;;26.06;100.00
8320;BME280;4197;42.130;24.746;2023-06-26T05:35:40;99035.63;;;26.28;100.00
8320;BME280;4197;42.130;24.746;2023-06-26T05:38:11;99046.19;;;26.47;100.00
8320;BME280;4197;42.130;24.746;2023-06-26T05:40:42;99045.56;;;26.43;100.00
8320;BME280;4197;42.130;24.746;2023-06-26T05:43:10;99046.25;;;26.29;100.00
8320;BME280;4197;42.130;24.746;2023-06-26T05:45:39;99052.97;;;26.13;99.75
8320;BME280;4197;42.130;24.746;2023-06-26T05:48:08;99046.81;;;26.42;96.88
8320;BME280;4197;42.130;24.746;2023-06-26T05:50:36;99051.69;;;26.57;94.39
8320;BME280;4197;42.130;24.746;2023-06-26T05:53:05;99047.44;;;26.70;93.35
8320;BME280;4197;42.130;24.746;2023-06-26T05:55:34;99050.31;;;27.00;90.40
8320;BME280;4197;42.130;24.746;2023-06-26T05:58:04;99048.22;;;27.10;82.70
8320;BME280;4197;42.130;24.746;2023-06-26T06:00:33;99042.44;;;27.23;77.11
8320;BME280;4197;42.130;24.746;2023-06-26T06:03:02;99047.69;;;27.21;74.76
8320;BME280;4197;42.130;24.746;2023-06-26T06:05:31;99050.53;;;27.11;73.17
8320;BME280;4197;42.130;24.746;2023-06-26T06:07:59;99049.25;;;26.98;71.40
8320;BME280;4197;42.130;24.746;2023-06-26T06:10:27;99050.47;;;27.21;70.69
8320;BME280;4197;42.130;24.746;2023-06-26T06:12:55;99047.22;;;27.37;70.60
8320;BME280;4197;42.130;24.746;2023-06-26T06:15:25;99049.44;;;27.63;67.85
8320;BME280;4197;42.130;24.746;2023-06-26T06:17:57;99048.41;;;27.45;68.26
8320;BME280;4197;42.130;24.746;2023-06-26T06:20:25;99059.63;;;27.36;68.27
8320;BME280;4197;42.130;24.746;2023-06-26T06:22:53;99063.44;;;27.24;68.65
8320;BME280;4197;42.130;24.746;2023-06-26T06:25:21;99057.09;;;27.23;68.31
8320;BME280;4197;42.130;24.746;2023-06-26T06:27:51;99060.97;;;27.41;67.98
8320;BME280;4197;42.130;24.746;2023-06-26T06:30:19;99057.16;;;27.38;67.36
8320;BME280;4197;42.130;24.746;2023-06-26T06:33:06;99056.00;;;27.06;68.20
8320;BME280;4197;42.130;24.746;2023-06-26T06:35:34;99058.06;;;26.96;67.31
8320;BME280;4197;42.130;24.746;2023-06-26T06:38:03;99051.28;;;26.73;68.69
8320;BME280;4197;42.130;24.746;2023-06-26T06:40:31;99050.28;;;26.61;70.01
8320;BME280;4197;42.130;24.746;2023-06-26T06:42:59;99051.91;;;26.44;69.70
8320;BME280;4197;42.130;24.746;2023-06-26T06:45:28;99044.56;;;26.32;69.28
8320;BME280;4197;42.130;24.746;2023-06-26T06:47:56;99047.69;;;26.24;68.66
8320;BME280;4197;42.130;24.746;2023-06-26T06:50:26;99050.13;;;26.32;68.88
8320;BME280;4197;42.130;24.746;2023-06-26T06:52:54;99046.38;;;26.35;67.22
8320;BME280;4197;42.130;24.746;2023-06-26T06:55:23;99053.50;;;26.36;68.26
8320;BME280;4197;42.130;24.746;2023-06-26T06:57:52;99046.94;;;26.48;66.53
8320;BME280;4197;42.130;24.746;2023-06-26T07:00:21;99055.53;;;26.59;65.97
8320;BME280;4197;42.130;24.746;2023-06-26T07:02:49;99057.72;;;26.79;64.33
8320;BME280;4197;42.130;24.746;2023-06-26T07:05:17;99056.53;;;26.95;63.28
8320;BME280;4197;42.130;24.746;2023-06-26T07:07:47;99063.09;;;27.07;61.88
8320;BME280;4197;42.130;24.746;2023-06-26T07:10:15;99055.16;;;27.14;60.99
8320;BME280;4197;42.130;24.746;2023-06-26T07:12:44;99050.47;;;27.21;61.00
8320;BME280;4197;42.130;24.746;2023-06-26T07:15:12;99050.19;;;27.19;60.75
8320;BME280;4197;42.130;24.746;2023-06-26T07:17:41;99040.09;;;27.21;59.91
8320;BME280;4197;42.130;24.746;2023-06-26T07:20:09;99054.03;;;27.21;59.15
8320;BME280;4197;42.130;24.746;2023-06-26T07:22:42;99041.16;;;27.24;58.40
8320;BME280;4197;42.130;24.746;2023-06-26T07:25:13;99035.69;;;27.29;58.56
8320;BME280;4197;42.130;24.746;2023-06-26T07:27:42;99047.53;;;27.54;57.98
8320;BME280;4197;42.130;24.746;2023-06-26T07:30:12;99039.00;;;27.57;58.03
8320;BME280;4197;42.130;24.746;2023-06-26T07:32:40;99042.44;;;27.67;56.97
8320;BME280;4197;42.130;24.746;2023-06-26T07:35:09;99041.09;;;27.63;56.99
8320;BME280;4197;42.130;24.746;2023-06-26T07:37:38;99033.34;;;27.82;56.78
8320;BME280;4197;42.130;24.746;2023-06-26T07:40:09;99035.69;;;28.03;56.44
8320;BME280;4197;42.130;24.746;2023-06-26T07:42:39;99033.81;;;28.30;57.93
8320;BME280;4197;42.130;24.746;2023-06-26T07:45:08;99038.75;;;28.56;54.47
8320;BME280;4197;42.130;24.746;2023-06-26T07:47:39;99032.19;;;28.79;54.02
8320;BME280;4197;42.130;24.746;2023-06-26T07:50:08;99036.03;;;28.82;51.62
8320;BME280;4197;42.130;24.746;2023-06-26T07:52:37;99030.50;;;28.87;53.12
8320;BME280;4197;42.130;24.746;2023-06-26T07:55:05;99032.75;;;28.83;51.93
8320;BME280;4197;42.130;24.746;2023-06-26T07:57:34;99042.94;;;29.07;51.36
8320;BME280;4197;42.130;24.746;2023-06-26T08:00:05;99041.34;;;29.26;51.46
8320;BME280;4197;42.130;24.746;2023-06-26T08:02:33;99042.28;;;29.18;51.57
8320;BME280;4197;42.130;24.746;2023-06-26T08:05:02;99031.88;;;29.18;50.33
8320;BME280;4197;42.130;24.746;2023-06-26T08:07:30;99041.19;;;29.09;50.41
8320;BME280;4197;42.130;24.746;2023-06-26T08:09:59;99039.09;;;29.04;49.60
8320;BME280;4197;42.130;24.746;2023-06-26T08:12:27;99040.16;;;28.66;50.69
8320;BME280;4197;42.130;24.746;2023-06-26T08:14:55;99039.66;;;28.47;51.70
8320;BME280;4197;42.130;24.746;2023-06-26T08:17:25;99042.88;;;28.25;52.69
8320;BME280;4197;42.130;24.746;2023-06-26T08:19:56;99043.63;;;28.25;53.45
8320;BME280;4197;42.130;24.746;2023-06-26T08:22:24;99046.53;;;28.16;53.91
8320;BME280;4197;42.130;24.746;2023-06-26T08:24:52;99043.94;;;28.13;54.70
8320;BME280;4197;42.130;24.746;2023-06-26T08:27:20;99067.34;;;27.86;57.25
8320;BME280;4197;42.130;24.746;2023-06-26T08:29:49;99056.13;;;26.87;65.60
8320;BME280;4197;42.130;24.746;2023-06-26T08:32:17;99049.28;;;26.16;71.59
8320;BME280;4197;42.130;24.746;2023-06-26T08:34:47;99050.81;;;25.56;75.03
8320;BME280;4197;42.130;24.746;2023-06-26T08:37:15;99048.84;;;24.92;84.52
8320;BME280;4197;42.130;24.746;2023-06-26T08:39:43;99045.03;;;24.40;92.96
8320;BME280;4197;42.130;24.746;2023-06-26T08:42:11;99049.38;;;24.01;100.00
8320;BME280;4197;42.130;24.746;2023-06-26T08:44:39;99047.41;;;23.79;100.00
8320;BME280;4197;42.130;24.746;2023-06-26T08:47:26;99038.47;;;23.53;100.00
8320;BME280;4197;42.130;24.746;2023-06-26T08:50:01;99033.78;;;23.41;100.00
8320;BME280;4197;42.130;24.746;2023-06-26T08:52:35;99029.00;;;23.42;100.00
8320;BME280;4197;42.130;24.746;2023-06-26T08:55:10;99024.22;;;23.86;99.80
8320;BME280;4197;42.130;24.746;2023-06-26T08:57:38;99021.88;;;24.16;100.00
8320;BME280;4197;42.130;24.746;2023-06-26T09:00:09;99024.13;;;24.48;100.00
8320;BME280;4197;42.130;24.746;2023-06-26T09:02:38;99032.03;;;24.96;100.00
8320;BME280;4197;42.130;24.746;2023-06-26T09:05:12;99023.72;;;25.33;100.00
8320;BME280;4197;42.130;24.746;2023-06-26T09:07:40;99019.84;;;25.58;92.14
8320;BME280;4197;42.130;24.746;2023-06-26T09:10:09;99026.78;;;26.05;93.34
8320;BME280;4197;42.130;24.746;2023-06-26T09:12:37;99025.19;;;26.70;82.74
8320;BME280;4197;42.130;24.746;2023-06-26T09:15:06;99024.84;;;27.17;76.79
8320;BME280;4197;42.130;24.746;2023-06-26T09:17:39;99023.88;;;27.79;69.01
8320;BME280;4197;42.130;24.746;2023-06-26T09:20:09;99014.97;;;27.90;65.83
8320;BME280;4197;42.130;24.746;2023-06-26T09:22:42;99017.94;;;28.01;57.37
8320;BME280;4197;42.130;24.746;2023-06-26T09:25:10;99013.91;;;28.02;57.73
8320;BME280;4197;42.130;24.746;2023-06-26T09:27:38;99012.81;;;28.35;58.62
8320;BME280;4197;42.130;24.746;2023-06-26T09:30:07;99010.72;;;28.65;60.48
8320;BME280;4197;42.130;24.746;2023-06-26T09:32:36;99007.75;;;28.95;55.98
8320;BME280;4197;42.130;24.746;2023-06-26T09:35:05;99022.19;;;28.93;52.71
8320;BME280;4197;42.130;24.746;2023-06-26T09:37:34;99021.31;;;28.25;60.04
8320;BME280;4197;42.130;24.746;2023-06-26T09:40:05;99037.75;;;27.44;66.12
8320;BME280;4197;42.130;24.746;2023-06-26T09:42:33;99024.66;;;26.81;67.49
8320;BME280;4197;42.130;24.746;2023-06-26T09:45:02;99026.50;;;26.60;69.49
8320;BME280;4197;42.130;24.746;2023-06-26T09:47:31;99027.53;;;26.39;71.41
8320;BME280;4197;42.130;24.746;2023-06-26T09:49:59;99032.78;;;26.37;75.89
8320;BME280;4197;42.130;24.746;2023-06-26T09:52:28;99039.06;;;26.46;71.88
8320;BME280;4197;42.130;24.746;2023-06-26T09:55:11;99054.28;;;26.03;76.65
8320;BME280;4197;42.130;24.746;2023-06-26T09:57:40;99052.31;;;25.76;79.94
8320;BME280;4197;42.130;24.746;2023-06-26T10:00:11;99054.81;;;25.65;79.91
8320;BME280;4197;42.130;24.746;2023-06-26T10:02:40;99046.06;;;25.48;78.72
8320;BME280;4197;42.130;24.746;2023-06-26T10:05:08;99048.53;;;25.27;84.08
8320;BME280;4197;42.130;24.746;2023-06-26T10:07:38;99042.69;;;24.98;86.24
8320;BME280;4197;42.130;24.746;2023-06-26T10:10:08;99030.81;;;24.79;88.48
8320;BME280;4197;42.130;24.746;2023-06-26T10:12:39;99028.94;;;24.66;88.97
8320;BME280;4197;42.130;24.746;2023-06-26T10:15:08;99018.31;;;24.65;92.77
8320;BME280;4197;42.130;24.746;2023-06-26T10:17:42;99013.69;;;24.71;90.05
8320;BME280;4197;42.130;24.746;2023-06-26T10:20:13;99017.41;;;24.68;86.92
8320;BME280;4197;42.130;24.746;2023-06-26T10:22:44;99018.19;;;24.78;90.72
8320;BME280;4197;42.130;24.746;2023-06-26T10:25:18;99020.66;;;25.03;87.95
8320;BME280;4197;42.130;24.746;2023-06-26T10:27:51;99013.09;;;25.31;86.64
8320;BME280;4197;42.130;24.746;2023-06-26T10:30:24;99014.69;;;25.75;85.45
8320;BME280;4197;42.130;24.746;2023-06-26T10:32:54;99000.59;;;26.21;81.20
8320;BME280;4197;42.130;24.746;2023-06-26T10:35:24;99010.06;;;26.72;78.99
8320;BME280;4197;42.130;24.746;2023-06-26T10:38:00;98997.88;;;27.23;67.53
8320;BME280;4197;42.130;24.746;2023-06-26T10:40:40;98999.25;;;27.42;70.13
8320;BME280;4197;42.130;24.746;2023-06-26T10:43:12;99002.22;;;27.39;73.04
8320;BME280;4197;42.130;24.746;2023-06-26T10:45:44;99005.19;;;27.35;73.31
8320;BME280;4197;42.130;24.746;2023-06-26T10:48:14;98993.66;;;27.42;69.13
8320;BME280;4197;42.130;24.746;2023-06-26T10:50:43;98989.94;;;27.30;72.19
8320;BME280;4197;42.130;24.746;2023-06-26T10:53:14;98983.88;;;27.62;72.66
8320;BME280;4197;42.130;24.746;2023-06-26T10:55:48;98980.25;;;28.06;68.70
8320;BME280;4197;42.130;24.746;2023-06-26T10:58:34;98976.06;;;28.51;66.80
8320;BME280;4197;42.130;24.746;2023-06-26T11:01:14;98978.81;;;28.92;59.20
8320;BME280;4197;42.130;24.746;2023-06-26T11:03:46;98984.03;;;28.84;56.73
8320;BME280;4197;42.130;24.746;2023-06-26T11:06:20;98979.75;;;29.09;55.84
8320;BME280;4197;42.130;24.746;2023-06-26T11:08:50;98976.50;;;29.11;56.73
8320;BME280;4197;42.130;24.746;2023-06-26T11:11:21;98976.88;;;29.56;57.81
8320;BME280;4197;42.130;24.746;2023-06-26T11:13:51;98970.91;;;30.06;59.71
8320;BME280;4197;42.130;24.746;2023-06-26T11:16:20;98974.88;;;30.31;56.53
8320;BME280;4197;42.130;24.746;2023-06-26T11:18:49;98978.69;;;30.28;57.97
8320;BME280;4197;42.130;24.746;2023-06-26T11:21:21;98966.00;;;30.33;57.93
8320;BME280;4197;42.130;24.746;2023-06-26T11:23:50;98968.72;;;30.21;55.11
8320;BME280;4197;42.130;24.746;2023-06-26T11:26:21;98964.72;;;29.91;55.46
8320;BME280;4197;42.130;24.746;2023-06-26T11:28:54;98967.31;;;29.63;55.40
8320;BME280;4197;42.130;24.746;2023-06-26T11:31:27;98972.56;;;29.55;56.14
8320;BME280;4197;42.130;24.746;2023-06-26T11:33:58;98969.72;;;29.49;58.41
8320;BME280;4197;42.130;24.746;2023-06-26T11:36:27;98971.63;;;29.06;58.61
8320;BME280;4197;42.130;24.746;2023-06-26T11:38:57;98972.16;;;28.43;60.85
8320;BME280;4197;42.130;24.746;2023-06-26T11:41:29;98960.22;;;28.22;62.75
8320;BME280;4197;42.130;24.746;2023-06-26T11:44:01;98965.09;;;28.27;59.18
8320;BME280;4197;42.130;24.746;2023-06-26T11:46:31;98967.44;;;28.14;59.81
8320;BME280;4197;42.130;24.746;2023-06-26T11:49:00;98976.66;;;27.70;70.17
8320;BME280;4197;42.130;24.746;2023-06-26T11:51:30;98967.38;;;26.75;78.11
8320;BME280;4197;42.130;24.746;2023-06-26T11:54:01;98971.56;;;25.98;89.13
8320;BME280;4197;42.130;24.746;2023-06-26T11:56:30;98968.59;;;25.59;88.17
8320;BME280;4197;42.130;24.746;2023-06-26T11:59:01;98961.75;;;25.36;93.43
8320;BME280;4197;42.130;24.746;2023-06-26T12:01:32;98960.53;;;25.28;84.37
8320;BME280;4197;42.130;24.746;2023-06-26T12:04:02;98973.00;;;25.42;78.60
8320;BME280;4197;42.130;24.746;2023-06-26T12:06:33;98974.59;;;25.67;81.25
8320;BME280;4197;42.130;24.746;2023-06-26T12:09:04;98974.84;;;26.20;81.26
8320;BME280;4197;42.130;24.746;2023-06-26T12:11:34;98969.56;;;26.46;83.63
8320;BME280;4197;42.130;24.746;2023-06-26T12:14:05;98976.69;;;26.72;80.34
8320;BME280;4197;42.130;24.746;2023-06-26T12:16:34;98976.59;;;26.81;73.87
8320;BME280;4197;42.130;24.746;2023-06-26T12:19:05;98977.38;;;26.96;74.43
8320;BME280;4197;42.130;24.746;2023-06-26T12:21:45;98974.44;;;27.59;72.92
8320;BME280;4197;42.130;24.746;2023-06-26T12:24:16;98975.66;;;28.23;67.53
8320;BME280;4197;42.130;24.746;2023-06-26T12:26:46;98990.06;;;28.57;66.24
8320;BME280;4197;42.130;24.746;2023-06-26T12:29:18;98982.88;;;28.91;65.09
8320;BME280;4197;42.130;24.746;2023-06-26T12:31:49;99001.47;;;29.00;63.61
8320;BME280;4197;42.130;24.746;2023-06-26T12:34:19;98993.50;;;29.39;61.32
8320;BME280;4197;42.130;24.746;2023-06-26T12:36:49;99001.00;;;29.53;62.36
8320;BME280;4197;42.130;24.746;2023-06-26T12:39:18;99006.03;;;29.75;58.62
8320;BME280;4197;42.130;24.746;2023-06-26T12:41:49;99001.53;;;29.57;59.63
8320;BME280;4197;42.130;24.746;2023-06-26T12:44:20;99006.25;;;29.72;60.33
8320;BME280;4197;42.130;24.746;2023-06-26T12:46:49;99009.78;;;30.04;59.32
8320;BME280;4197;42.130;24.746;2023-06-26T12:49:18;99003.34;;;29.92;57.39
8320;BME280;4197;42.130;24.746;2023-06-26T12:51:57;99003.13;;;29.96;58.04
8320;BME280;4197;42.130;24.746;2023-06-26T12:54:26;99003.97;;;30.08;57.61
8320;BME280;4197;42.130;24.746;2023-06-26T12:56:54;99016.13;;;30.42;54.92
8320;BME280;4197;42.130;24.746;2023-06-26T12:59:24;99017.41;;;29.46;58.44
8320;BME280;4197;42.130;24.746;2023-06-26T13:01:52;99024.47;;;28.33;65.57
8320;BME280;4197;42.130;24.746;2023-06-26T13:04:21;99027.25;;;27.24;71.97
8320;BME280;4197;42.130;24.746;2023-06-26T13:06:49;99060.94;;;26.63;77.23
8320;BME280;4197;42.130;24.746;2023-06-26T13:09:18;99038.28;;;25.89;83.80
8320;BME280;4197;42.130;24.746;2023-06-26T13:11:46;99037.75;;;25.39;92.70
8320;BME280;4197;42.130;24.746;2023-06-26T13:14:16;99043.63;;;25.31;100.00
8320;BME280;4197;42.130;24.746;2023-06-26T13:16:46;99053.59;;;24.83;100.00
8320;BME280;4197;42.130;24.746;2023-06-26T13:19:15;99055.66;;;24.42;100.00